Chester, Montana
Current Conditions -  °F | °C
As of 1:53 AM on Saturday 22 Nov 2014 (Local Time) from KHVR Reporting Station
Broken Clouds Broken Clouds  
Wind Chill: 34°   Ceiling: 10000
Heat Index: 34°   Visibility: 10mi
Dew Point: 29°   Wind: 0mph
Humidity: 82%   Direction: NA
Pressure: 29.38"   Gusts: NA
Location:  48.51°N, 110.97°W
Report Text: KHVR 220853Z AUTO 00000KT 10SM BKN100 BKN120 01/M02 A2938 RMK AO2 SLP962 T00111017 56032
Loading
Personal Weather Stations






























Interactive Weather Map New forecast layout! Learn more

10-Day Weather Forecast

Advertisements
Track Severe Weather on mobile